sensor_id;sensor_type;location;lat;lon;timestamp;pressure;altitude;pressure_sealevel;temperature;humidity
54918;BME280;40818;50.562;7.454;2023-04-07T00:09:14;97527.78;;;4.60;100.00
54918;BME280;40818;50.562;7.454;2023-04-07T00:19:17;97515.81;;;4.59;100.00
54918;BME280;40818;50.562;7.454;2023-04-07T00:29:23;97513.09;;;4.62;100.00
54918;BME280;40818;50.562;7.454;2023-04-07T00:39:27;97497.56;;;4.65;100.00
54918;BME280;40818;50.562;7.454;2023-04-07T00:49:33;97487.88;;;4.70;100.00
54918;BME280;40818;50.562;7.454;2023-04-07T00:59:38;97485.44;;;4.67;100.00
54918;BME280;40818;50.562;7.454;2023-04-07T01:09:46;97478.59;;;4.68;100.00
54918;BME280;40818;50.562;7.454;2023-04-07T01:19:55;97477.66;;;4.69;100.00
54918;BME280;40818;50.562;7.454;2023-04-07T01:30:05;97456.25;;;4.68;100.00
54918;BME280;40818;50.562;7.454;2023-04-07T01:40:11;97451.59;;;4.76;100.00
54918;BME280;40818;50.562;7.454;2023-04-07T01:50:18;97456.59;;;4.79;100.00
54918;BME280;40818;50.562;7.454;2023-04-07T02:00:23;97445.09;;;4.87;100.00
54918;BME280;40818;50.562;7.454;2023-04-07T02:10:34;97448.53;;;4.87;100.00
54918;BME280;40818;50.562;7.454;2023-04-07T02:20:39;97449.06;;;4.94;100.00
54918;BME280;40818;50.562;7.454;2023-04-07T02:30:48;97447.09;;;4.99;100.00
54918;BME280;40818;50.562;7.454;2023-04-07T02:40:51;97438.19;;;5.06;100.00
54918;BME280;40818;50.562;7.454;2023-04-07T02:50:57;97439.72;;;5.10;100.00
54918;BME280;40818;50.562;7.454;2023-04-07T03:01:01;97436.84;;;5.17;100.00
54918;BME280;40818;50.562;7.454;2023-04-07T03:11:10;97438.06;;;5.27;100.00
54918;BME280;40818;50.562;7.454;2023-04-07T03:21:13;97438.69;;;5.32;100.00
54918;BME280;40818;50.562;7.454;2023-04-07T03:31:20;97437.47;;;5.39;100.00
54918;BME280;40818;50.562;7.454;2023-04-07T03:41:26;97432.94;;;5.44;100.00
54918;BME280;40818;50.562;7.454;2023-04-07T03:51:32;97431.88;;;5.49;100.00
54918;BME280;40818;50.562;7.454;2023-04-07T04:01:39;97429.16;;;5.52;100.00
54918;BME280;40818;50.562;7.454;2023-04-07T04:11:51;97436.53;;;5.58;100.00
54918;BME280;40818;50.562;7.454;2023-04-07T04:21:54;97435.50;;;5.62;100.00
54918;BME280;40818;50.562;7.454;2023-04-07T04:32:01;97435.19;;;5.68;100.00
54918;BME280;40818;50.562;7.454;2023-04-07T04:42:05;97442.00;;;5.69;100.00
54918;BME280;40818;50.562;7.454;2023-04-07T04:52:12;97452.91;;;5.74;100.00
54918;BME280;40818;50.562;7.454;2023-04-07T05:02:20;97460.63;;;5.74;100.00
54918;BME280;40818;50.562;7.454;2023-04-07T05:12:27;97469.88;;;5.78;100.00
54918;BME280;40818;50.562;7.454;2023-04-07T05:22:34;97469.72;;;5.81;100.00
54918;BME280;40818;50.562;7.454;2023-04-07T05:32:43;97475.63;;;5.84;100.00
54918;BME280;40818;50.562;7.454;2023-04-07T05:42:56;97477.31;;;5.85;100.00
54918;BME280;40818;50.562;7.454;2023-04-07T05:53:05;97481.44;;;5.87;100.00
54918;BME280;40818;50.562;7.454;2023-04-07T06:03:09;97490.94;;;5.87;100.00
54918;BME280;40818;50.562;7.454;2023-04-07T06:13:31;97511.69;;;5.84;100.00
54918;BME280;40818;50.562;7.454;2023-04-07T06:23:34;97510.03;;;5.82;100.00
54918;BME280;40818;50.562;7.454;2023-04-07T06:33:43;97506.63;;;5.82;100.00
54918;BME280;40818;50.562;7.454;2023-04-07T06:43:48;97519.50;;;5.82;100.00
54918;BME280;40818;50.562;7.454;2023-04-07T06:53:55;97524.59;;;5.84;100.00
54918;BME280;40818;50.562;7.454;2023-04-07T07:03:59;97531.25;;;5.88;100.00
54918;BME280;40818;50.562;7.454;2023-04-07T07:14:05;97533.91;;;5.86;100.00
54918;BME280;40818;50.562;7.454;2023-04-07T07:24:08;97544.94;;;5.88;100.00
54918;BME280;40818;50.562;7.454;2023-04-07T07:34:14;97559.44;;;5.91;100.00
54918;BME280;40818;50.562;7.454;2023-04-07T07:44:18;97563.69;;;5.92;100.00
54918;BME280;40818;50.562;7.454;2023-04-07T07:54:25;97576.28;;;5.98;100.00
54918;BME280;40818;50.562;7.454;2023-04-07T08:04:28;97590.75;;;6.01;100.00
54918;BME280;40818;50.562;7.454;2023-04-07T08:14:34;97601.78;;;6.04;100.00
54918;BME280;40818;50.562;7.454;2023-04-07T08:24:49;97606.91;;;6.04;100.00
54918;BME280;40818;50.562;7.454;2023-04-07T08:34:54;97617.81;;;6.09;100.00
54918;BME280;40818;50.562;7.454;2023-04-07T08:45:02;97623.72;;;6.29;100.00
54918;BME280;40818;50.562;7.454;2023-04-07T08:55:08;97620.94;;;6.16;100.00
54918;BME280;40818;50.562;7.454;2023-04-07T09:05:14;97635.50;;;6.17;100.00
54918;BME280;40818;50.562;7.454;2023-04-07T09:15:18;97648.53;;;6.49;100.00
54918;BME280;40818;50.562;7.454;2023-04-07T09:25:24;97651.03;;;6.68;100.00
54918;BME280;40818;50.562;7.454;2023-04-07T09:35:29;97651.59;;;6.73;100.00
54918;BME280;40818;50.562;7.454;2023-04-07T09:45:37;97642.81;;;6.77;100.00
54918;BME280;40818;50.562;7.454;2023-04-07T09:55:42;97657.75;;;6.88;100.00
54918;BME280;40818;50.562;7.454;2023-04-07T10:05:49;97662.13;;;6.86;100.00
54918;BME280;40818;50.562;7.454;2023-04-07T10:15:52;97671.47;;;6.89;100.00
54918;BME280;40818;50.562;7.454;2023-04-07T10:25:59;97676.50;;;6.92;100.00
54918;BME280;40818;50.562;7.454;2023-04-07T10:36:05;97681.56;;;6.93;100.00
54918;BME280;40818;50.562;7.454;2023-04-07T10:46:12;97680.81;;;6.91;100.00
54918;BME280;40818;50.562;7.454;2023-04-07T10:56:15;97687.88;;;7.37;100.00
54918;BME280;40818;50.562;7.454;2023-04-07T11:06:21;97701.50;;;7.57;100.00
54918;BME280;40818;50.562;7.454;2023-04-07T11:16:34;97707.25;;;7.62;100.00
54918;BME280;40818;50.562;7.454;2023-04-07T11:26:41;97713.56;;;8.04;100.00
54918;BME280;40818;50.562;7.454;2023-04-07T11:36:44;97716.88;;;8.22;100.00
54918;BME280;40818;50.562;7.454;2023-04-07T11:46:57;97719.09;;;8.44;100.00
54918;BME280;40818;50.562;7.454;2023-04-07T11:57:02;97722.72;;;8.72;100.00
54918;BME280;40818;50.562;7.454;2023-04-07T12:07:09;97726.59;;;8.65;100.00
54918;BME280;40818;50.562;7.454;2023-04-07T12:17:19;97730.97;;;8.48;100.00
54918;BME280;40818;50.562;7.454;2023-04-07T12:27:26;97737.06;;;8.47;100.00
54918;BME280;40818;50.562;7.454;2023-04-07T12:37:30;97750.88;;;8.62;100.00
54918;BME280;40818;50.562;7.454;2023-04-07T12:47:36;97761.13;;;8.64;100.00
54918;BME280;40818;50.562;7.454;2023-04-07T12:57:40;97766.72;;;8.72;100.00
54918;BME280;40818;50.562;7.454;2023-04-07T13:07:46;97766.38;;;8.78;100.00
54918;BME280;40818;50.562;7.454;2023-04-07T13:17:49;97764.72;;;8.77;100.00
54918;BME280;40818;50.562;7.454;2023-04-07T13:27:55;97765.81;;;8.87;100.00
54918;BME280;40818;50.562;7.454;2023-04-07T13:37:59;97770.97;;;9.03;100.00
54918;BME280;40818;50.562;7.454;2023-04-07T13:48:05;97771.69;;;8.61;100.00
54918;BME280;40818;50.562;7.454;2023-04-07T13:58:08;97776.09;;;8.89;100.00
54918;BME280;40818;50.562;7.454;2023-04-07T14:08:14;97774.91;;;8.95;100.00
54918;BME280;40818;50.562;7.454;2023-04-07T14:18:18;97776.59;;;9.10;100.00
54918;BME280;40818;50.562;7.454;2023-04-07T14:28:25;97783.44;;;9.11;100.00
54918;BME280;40818;50.562;7.454;2023-04-07T14:38:29;97780.84;;;9.11;100.00
54918;BME280;40818;50.562;7.454;2023-04-07T14:48:35;97785.53;;;8.90;100.00
54918;BME280;40818;50.562;7.454;2023-04-07T14:58:39;97790.72;;;8.90;100.00
54918;BME280;40818;50.562;7.454;2023-04-07T15:08:45;97791.91;;;8.84;100.00
54918;BME280;40818;50.562;7.454;2023-04-07T15:18:49;97807.31;;;8.71;100.00
54918;BME280;40818;50.562;7.454;2023-04-07T15:28:55;97804.72;;;8.40;100.00
54918;BME280;40818;50.562;7.454;2023-04-07T15:39:01;97802.41;;;8.51;100.00
54918;BME280;40818;50.562;7.454;2023-04-07T15:49:07;97806.47;;;8.39;100.00
54918;BME280;40818;50.562;7.454;2023-04-07T15:59:11;97819.09;;;8.13;100.00
54918;BME280;40818;50.562;7.454;2023-04-07T16:09:17;97820.44;;;8.05;100.00
54918;BME280;40818;50.562;7.454;2023-04-07T16:19:21;97831.81;;;7.84;100.00
54918;BME280;40818;50.562;7.454;2023-04-07T16:29:27;97841.72;;;7.76;100.00
54918;BME280;40818;50.562;7.454;2023-04-07T16:39:30;97837.19;;;7.64;100.00
54918;BME280;40818;50.562;7.454;2023-04-07T16:49:36;97869.56;;;7.54;100.00
54918;BME280;40818;50.562;7.454;2023-04-07T16:59:40;97874.22;;;7.47;100.00
54918;BME280;40818;50.562;7.454;2023-04-07T17:09:46;97888.03;;;7.46;100.00
54918;BME280;40818;50.562;7.454;2023-04-07T17:19:50;97896.75;;;7.08;100.00
54918;BME280;40818;50.562;7.454;2023-04-07T17:29:56;97908.09;;;7.06;100.00
54918;BME280;40818;50.562;7.454;2023-04-07T17:39:59;97916.94;;;7.00;100.00
54918;BME280;40818;50.562;7.454;2023-04-07T17:50:07;97924.09;;;6.95;100.00
54918;BME280;40818;50.562;7.454;2023-04-07T18:00:11;97923.84;;;6.82;100.00
54918;BME280;40818;50.562;7.454;2023-04-07T18:10:18;97937.16;;;6.73;100.00
54918;BME280;40818;50.562;7.454;2023-04-07T18:20:21;97936.38;;;6.71;100.00
54918;BME280;40818;50.562;7.454;2023-04-07T18:30:28;97968.13;;;6.73;100.00
54918;BME280;40818;50.562;7.454;2023-04-07T18:40:31;97983.84;;;6.68;100.00
54918;BME280;40818;50.562;7.454;2023-04-07T18:50:38;97989.25;;;6.62;100.00
54918;BME280;40818;50.562;7.454;2023-04-07T19:00:41;98007.66;;;6.54;100.00
54918;BME280;40818;50.562;7.454;2023-04-07T19:10:51;98008.75;;;6.48;100.00
54918;BME280;40818;50.562;7.454;2023-04-07T19:20:56;98013.81;;;6.52;100.00
54918;BME280;40818;50.562;7.454;2023-04-07T19:31:03;98022.31;;;6.33;100.00
54918;BME280;40818;50.562;7.454;2023-04-07T19:41:07;98027.13;;;6.22;100.00
54918;BME280;40818;50.562;7.454;2023-04-07T19:51:14;98028.78;;;6.23;100.00
54918;BME280;40818;50.562;7.454;2023-04-07T20:01:18;98048.16;;;6.12;100.00
54918;BME280;40818;50.562;7.454;2023-04-07T20:11:24;98055.16;;;6.09;100.00
54918;BME280;40818;50.562;7.454;2023-04-07T20:21:28;98056.19;;;6.05;100.00
54918;BME280;40818;50.562;7.454;2023-04-07T20:31:34;98062.44;;;5.99;100.00
54918;BME280;40818;50.562;7.454;2023-04-07T20:41:37;98069.63;;;5.91;100.00
54918;BME280;40818;50.562;7.454;2023-04-07T20:51:44;98072.84;;;5.96;100.00
54918;BME280;40818;50.562;7.454;2023-04-07T21:01:48;98086.53;;;5.98;100.00
54918;BME280;40818;50.562;7.454;2023-04-07T21:11:54;98087.31;;;6.00;100.00
54918;BME280;40818;50.562;7.454;2023-04-07T21:21:57;98098.53;;;5.99;100.00
54918;BME280;40818;50.562;7.454;2023-04-07T21:32:04;98094.78;;;6.06;100.00
54918;BME280;40818;50.562;7.454;2023-04-07T21:42:07;98089.63;;;6.06;100.00
54918;BME280;40818;50.562;7.454;2023-04-07T21:52:15;98087.88;;;6.07;100.00
54918;BME280;40818;50.562;7.454;2023-04-07T22:02:18;98089.63;;;6.06;100.00
54918;BME280;40818;50.562;7.454;2023-04-07T22:12:24;98094.91;;;6.03;100.00
54918;BME280;40818;50.562;7.454;2023-04-07T22:22:28;98086.28;;;6.04;100.00
54918;BME280;40818;50.562;7.454;2023-04-07T22:32:34;98097.56;;;6.02;100.00
54918;BME280;40818;50.562;7.454;2023-04-07T22:42:38;98101.31;;;5.93;100.00
54918;BME280;40818;50.562;7.454;2023-04-07T22:52:44;98107.38;;;5.92;100.00
54918;BME280;40818;50.562;7.454;2023-04-07T23:02:47;98119.31;;;5.94;100.00
54918;BME280;40818;50.562;7.454;2023-04-07T23:12:53;98124.53;;;5.93;100.00
54918;BME280;40818;50.562;7.454;2023-04-07T23:22:57;98136.53;;;5.92;100.00
54918;BME280;40818;50.562;7.454;2023-04-07T23:33:03;98139.13;;;5.92;100.00
54918;BME280;40818;50.562;7.454;2023-04-07T23:43:07;98145.16;;;5.91;100.00
54918;BME280;40818;50.562;7.454;2023-04-07T23:53:13;98149.69;;;5.86;100.00
